Terminal Aerodrome Forecast
Issued by NWS

Home | Current Version | Previous Version | Text Only | Print | Product List | Glossary On
Versions: 1 2 3 4 5 6 7 8 9 10 11 12 13 14 15
683
FTUS43 KICT 161426 AAA
TAFSLN
TAF AMD
KSLN 161426Z 1614/1712 16010KT P6SM SCT008 BKN035
     FM161700 18010KT P6SM SCT050 SCT150
     FM162000 26009KT P6SM VCTS BKN050CB
     FM162300 30012KT P6SM VCTS BKN080CB
     FM170600 29008KT P6SM SCT200=

USA.gov is the U.S. government's official web portal to all federal, state and local government web resources and services.